Time;durP1;ratioP1;P1;durP2;ratioP2;P2;SDS_P1;SDS_P2;PMS_P1;PMS_P2;Temp;Humidity;BMP_temperature;BMP_pressure;BME280_temperature;BME280_humidity;BME280_pressure;Samples;Min_cycle;Max_cycle;Signal;HPM_P1;HPM_P2
2021/03/04 00:00:43;;;;;;;25.97;11.83;;;;;;;21.78;31.06;156859.14;1776278;79;21360;-76
2021/03/04 00:03:16;;;;;;;28.27;13.38;;;;;;;21.75;31.06;156851.19;1779897;79;21324;-76
2021/03/04 00:05:49;;;;;;;22.62;11.22;;;;;;;21.68;31.10;156832.67;1781274;79;21379;-76
2021/03/04 00:08:21;;;;;;;24.12;11.38;;;;;;;21.58;31.12;156806.20;1778983;79;21248;-76
2021/03/04 00:10:54;;;;;;;26.62;11.60;;;;;;;21.54;31.20;156795.56;1754588;80;21183;-76
2021/03/04 00:13:26;;;;;;;20.08;10.08;;;;;;;21.41;31.31;156762.44;1768162;80;21188;-76
2021/03/04 00:15:59;;;;;;;27.87;11.45;;;;;;;21.41;31.38;156762.44;1781825;79;21237;-76
2021/03/04 00:18:31;;;;;;;18.10;9.83;;;;;;;21.43;31.39;156767.73;1789014;79;21192;-76
2021/03/04 00:21:05;;;;;;;23.57;11.00;;;;;;;21.40;31.39;156759.84;1754612;81;21183;-76
2021/03/04 00:23:38;;;;;;;26.27;11.00;;;;;;;21.36;31.42;156749.23;1784265;79;21359;-76
2021/03/04 00:26:10;;;;;;;19.52;9.33;;;;;;;21.32;31.51;156738.63;1774797;79;21224;-75
2021/03/04 00:28:42;;;;;;;26.30;11.60;;;;;;;21.20;31.60;156705.58;1777907;79;21186;-76
2021/03/04 00:31:15;;;;;;;19.48;9.80;;;;;;;21.20;31.57;156706.88;1760646;79;21242;-76
2021/03/04 00:33:48;;;;;;;20.70;9.50;;;;;;;21.16;31.70;156696.33;1772944;80;21356;-75
2021/03/04 00:36:20;;;;;;;22.98;11.35;;;;;;;21.10;31.61;156679.13;1772067;79;21373;-75
2021/03/04 00:38:53;;;;;;;16.35;9.00;;;;;;;21.08;31.56;156675.12;1772652;79;21353;-75
2021/03/04 00:41:25;;;;;;;21.35;9.58;;;;;;;21.01;31.79;156655.27;1781126;79;21332;-75
2021/03/04 00:43:57;;;;;;;22.20;10.13;;;;;;;20.98;31.77;156648.67;1779701;79;21889;-76
2021/03/04 00:46:30;;;;;;;18.62;9.08;;;;;;;20.87;31.93;156618.28;1763664;79;21337;-75
2021/03/04 00:49:03;;;;;;;17.10;8.53;;;;;;;20.83;32.05;156606.38;1740459;80;21451;-75
2021/03/04 00:51:36;;;;;;;16.82;8.35;;;;;;;20.85;31.95;156612.97;1753168;79;21764;-75
2021/03/04 00:54:09;;;;;;;16.25;8.30;;;;;;;20.82;31.99;156605.03;1786573;79;21371;-75
2021/03/04 00:56:41;;;;;;;18.95;8.38;;;;;;;20.98;31.97;156647.37;1789122;79;21255;-75
2021/03/04 00:59:13;;;;;;;16.27;8.08;;;;;;;21.07;31.96;156672.47;1791115;79;21905;-76
2021/03/04 01:01:46;;;;;;;20.10;8.88;;;;;;;21.16;32.07;156694.97;1788339;79;21383;-75
2021/03/04 01:04:20;;;;;;;21.45;9.60;;;;;;;21.17;32.14;156698.97;1781261;79;21194;-75
2021/03/04 01:06:52;;;;;;;19.25;8.38;;;;;;;21.23;32.25;156714.83;1715672;81;21242;-75
2021/03/04 01:09:24;;;;;;;21.07;10.75;;;;;;;21.34;32.23;156742.64;1782947;79;21189;-74
2021/03/04 01:11:57;;;;;;;21.87;10.20;;;;;;;21.42;32.19;156765.09;1787636;79;21254;-75
2021/03/04 01:14:30;;;;;;;23.27;10.00;;;;;;;21.49;32.20;156783.66;1774379;79;21222;-74
2021/03/04 01:17:02;;;;;;;21.30;10.13;;;;;;;21.68;32.14;156833.97;1758829;79;21752;-74
2021/03/04 01:19:35;;;;;;;23.02;11.38;;;;;;;21.59;32.28;156810.16;1775285;80;21326;-74
2021/03/04 01:22:07;;;;;;;23.25;9.95;;;;;;;21.57;32.40;156804.86;1779405;79;21415;-74
2021/03/04 01:24:40;;;;;;;23.98;10.63;;;;;;;21.59;32.42;156810.16;1773074;79;21207;-74
2021/03/04 01:27:13;;;;;;;27.13;11.65;;;;;;;21.57;32.49;156803.56;1780155;79;21356;-74
2021/03/04 01:29:45;;;;;;;24.02;11.00;;;;;;;21.59;32.56;156808.81;1745267;81;21755;-74
2021/03/04 01:32:17;;;;;;;29.12;11.68;;;;;;;21.67;32.51;156830.02;1729987;81;21335;-75
2021/03/04 01:34:50;;;;;;;23.83;10.32;;;;;;;21.67;32.50;156830.02;1718314;82;21386;-74
2021/03/04 01:37:22;;;;;;;24.50;11.90;;;;;;;21.64;32.65;156823.42;1696621;83;21273;-75
2021/03/04 01:39:55;;;;;;;23.38;10.18;;;;;;;21.72;32.61;156844.58;1754652;80;21343;-75
2021/03/04 01:42:27;;;;;;;24.75;11.25;;;;;;;21.74;32.59;156849.87;1764788;80;21217;-75
2021/03/04 01:45:00;;;;;;;22.90;9.93;;;;;;;21.89;32.45;156889.56;1749330;79;21228;-75
2021/03/04 01:47:32;;;;;;;27.13;11.50;;;;;;;22.06;32.19;156934.59;1777546;79;21224;-75
2021/03/04 01:50:10;;;;;;;23.60;11.08;;;;;;;22.14;32.06;156957.11;1787698;79;21222;-76
2021/03/04 01:52:42;;;;;;;29.32;11.38;;;;;;;22.20;32.03;156972.98;1781948;79;21376;-76
2021/03/04 01:55:17;;;;;;;24.47;11.03;;;;;;;22.25;31.96;156986.25;1774594;79;21723;-76
2021/03/04 01:57:50;;;;;;;27.93;11.30;;;;;;;22.15;32.12;156959.77;1740655;79;21233;-75
2021/03/04 02:00:22;;;;;;;36.30;14.03;;;;;;;22.15;32.16;156958.41;1774926;79;21211;-75
2021/03/04 02:02:55;;;;;;;30.55;11.80;;;;;;;22.14;32.28;156955.77;1781070;79;21238;-75
2021/03/04 02:05:28;;;;;;;28.83;12.50;;;;;;;22.05;32.45;156931.94;1733362;81;21186;-75
2021/03/04 02:08:26;;;;;;;27.00;12.90;;;;;;;21.84;32.83;156876.34;1727140;82;21344;-75
2021/03/04 02:11:11;;;;;;;29.50;11.20;;;;;;;21.85;32.75;156879.00;1715564;82;21897;-75
2021/03/04 02:13:57;;;;;;;29.25;12.88;;;;;;;21.80;32.86;156865.75;1721535;82;21253;-75
2021/03/04 02:16:38;;;;;;;29.42;12.98;;;;;;;21.82;32.93;156871.05;1708355;82;21367;-75
2021/03/04 02:19:17;;;;;;;;;;;;;;;21.90;32.93;156892.22;1712101;82;21238;-75
2021/03/04 02:22:16;;;;;;;30.40;13.15;;;;;;;21.89;32.94;156889.56;1723092;82;20301;-76
2021/03/04 02:25:05;;;;;;;33.53;12.75;;;;;;;21.73;33.21;156845.88;1700439;82;21743;-76
2021/03/04 02:27:37;;;;;;;35.73;13.50;;;;;;;21.90;33.03;156893.56;1704058;83;21296;-76
2021/03/04 02:30:19;;;;;;;33.98;13.13;;;;;;;21.97;33.01;156912.06;1748183;81;21355;-77
2021/03/04 02:32:55;;;;;;;33.33;12.70;;;;;;;22.07;32.90;156937.25;1693204;82;21213;-77
2021/03/04 02:35:30;;;;;;;38.10;14.98;;;;;;;22.14;32.79;156957.11;1709705;82;21744;-77
2021/03/04 02:38:11;;;;;;;34.40;14.23;;;;;;;22.10;32.78;156945.20;1730944;82;21204;-77
2021/03/04 02:40:46;;;;;;;33.48;13.08;;;;;;;22.10;32.76;156945.20;1712481;82;21424;-76
2021/03/04 02:43:20;;;;;;;35.60;14.00;;;;;;;22.18;32.69;156966.38;1767090;79;21698;-77
2021/03/04 02:45:53;;;;;;;30.60;13.88;;;;;;;22.29;32.63;156995.50;1770678;79;21426;-77
2021/03/04 02:48:26;;;;;;;38.70;14.28;;;;;;;22.40;32.48;157024.69;1717857;81;21308;-77
2021/03/04 02:50:59;;;;;;;42.83;15.18;;;;;;;22.36;32.57;157015.42;1760609;79;21312;-77
2021/03/04 02:53:32;;;;;;;40.43;13.58;;;;;;;22.26;32.81;156988.89;1792744;79;21206;-76
2021/03/04 02:56:04;;;;;;;40.15;15.30;;;;;;;22.30;32.86;156998.16;1787187;79;21808;-76
2021/03/04 02:58:36;;;;;;;39.67;15.08;;;;;;;22.32;32.87;157004.81;1786896;79;21345;-76
2021/03/04 03:01:09;;;;;;;36.65;14.13;;;;;;;22.40;32.88;157024.69;1776782;79;21417;-76
2021/03/04 03:03:42;;;;;;;40.12;13.75;;;;;;;22.34;33.04;157008.77;1777868;79;21178;-76
2021/03/04 03:06:17;;;;;;;40.38;15.30;;;;;;;22.45;32.93;157037.95;1781835;79;21740;-76
2021/03/04 03:08:49;;;;;;;44.90;16.32;;;;;;;22.40;33.02;157025.98;1791393;79;21400;-76
2021/03/04 03:11:22;;;;;;;40.35;14.58;;;;;;;22.46;33.04;157041.91;1776194;79;21374;-77
2021/03/04 03:13:55;;;;;;;42.15;16.65;;;;;;;22.47;33.11;157043.20;1787402;79;21344;-77
2021/03/04 03:16:28;;;;;;;36.53;14.80;;;;;;;22.53;33.09;157060.42;1767558;79;21182;-76
2021/03/04 03:19:01;;;;;;;40.17;15.48;;;;;;;22.62;32.98;157084.31;1779685;79;21371;-76
2021/03/04 03:21:35;;;;;;;34.92;15.45;;;;;;;22.76;32.88;157120.06;1760529;79;21339;-77
2021/03/04 03:24:08;;;;;;;48.80;15.15;;;;;;;22.79;32.89;157130.67;1757437;79;21238;-77
2021/03/04 03:26:41;;;;;;;41.53;13.80;;;;;;;22.79;32.93;157130.67;1774296;79;21183;-77
2021/03/04 03:29:13;;;;;;;38.75;14.83;;;;;;;22.86;32.91;157147.84;1750707;80;21427;-76
2021/03/04 03:31:47;;;;;;;39.38;15.35;;;;;;;22.88;32.87;157153.16;1755279;79;21333;-77
2021/03/04 03:34:20;;;;;;;41.83;15.30;;;;;;;22.86;32.91;157149.19;1768256;79;21398;-77
2021/03/04 03:36:52;;;;;;;42.33;15.15;;;;;;;22.92;32.94;157165.08;1781131;79;21186;-76
2021/03/04 03:39:25;;;;;;;40.85;14.80;;;;;;;22.94;32.86;157169.08;1788812;79;21221;-76
2021/03/04 03:41:57;;;;;;;40.30;14.98;;;;;;;22.91;32.93;157162.47;1766218;79;21380;-76
2021/03/04 03:44:30;;;;;;;37.88;15.43;;;;;;;22.88;32.96;157153.16;1771174;79;21182;-76
2021/03/04 03:47:03;;;;;;;45.73;16.95;;;;;;;22.93;32.91;157167.72;1757510;79;21186;-76
2021/03/04 03:49:38;;;;;;;40.92;16.48;;;;;;;22.88;32.98;157154.50;1764421;80;21388;-76
2021/03/04 03:52:10;;;;;;;41.10;16.35;;;;;;;22.91;32.99;157162.47;1779226;79;21233;-76
2021/03/04 03:54:43;;;;;;;41.55;15.88;;;;;;;22.86;33.06;157149.19;1763292;79;21301;-76
2021/03/04 03:57:15;;;;;;;43.52;16.65;;;;;;;23.06;32.91;157202.23;1778497;79;21210;-76
2021/03/04 03:59:47;;;;;;;37.90;14.45;;;;;;;23.14;32.74;157222.12;1764756;79;21226;-76
2021/03/04 04:02:20;;;;;;;38.30;15.00;;;;;;;23.26;32.71;157255.22;1761791;79;21311;-76
2021/03/04 04:04:52;;;;;;;42.90;15.78;;;;;;;23.50;32.51;157318.84;1767153;79;21239;-77
2021/03/04 04:07:25;;;;;;;44.13;15.72;;;;;;;23.56;32.35;157334.78;1771558;79;21279;-77
2021/03/04 04:09:58;;;;;;;38.08;15.58;;;;;;;23.58;32.31;157340.09;1769539;79;21390;-77
2021/03/04 04:12:31;;;;;;;43.10;17.67;;;;;;;23.52;32.33;157324.16;1786483;79;21369;-76
2021/03/04 04:15:04;;;;;;;37.20;16.00;;;;;;;23.52;32.29;157322.86;1770978;80;21350;-76
2021/03/04 04:17:37;;;;;;;40.15;16.35;;;;;;;23.44;32.39;157302.97;1764517;79;21343;-76
2021/03/04 04:20:10;;;;;;;40.28;15.68;;;;;;;23.49;32.34;157316.25;1798871;79;22617;-76
2021/03/04 04:22:43;;;;;;;41.45;15.58;;;;;;;23.48;32.33;157313.59;1763166;79;21743;-77
2021/03/04 04:25:15;;;;;;;36.75;15.48;;;;;;;23.49;32.34;157314.89;1777314;79;22880;-77
2021/03/04 04:27:50;;;;;;;38.42;14.65;;;;;;;23.68;32.17;157365.25;1770931;79;21245;-77
2021/03/04 04:30:25;;;;;;;35.40;15.65;;;;;;;23.64;32.16;157355.97;1775662;79;21424;-77
2021/03/04 04:32:58;;;;;;;40.00;15.48;;;;;;;23.85;31.88;157411.70;1715335;81;21204;-77
2021/03/04 04:35:30;;;;;;;39.85;16.97;;;;;;;23.78;31.75;157393.16;1789916;79;21198;-76
2021/03/04 04:38:03;;;;;;;38.85;16.20;;;;;;;23.37;32.00;157283.08;1744674;80;21270;-76
2021/03/04 04:40:36;;;;;;;38.35;15.60;;;;;;;23.64;31.56;157354.67;1794375;79;21715;-86
2021/03/04 04:43:09;;;;;;;35.52;14.63;;;;;;;23.44;31.50;157301.63;1791939;79;21294;-81
2021/03/04 04:45:42;;;;;;;33.02;14.43;;;;;;;23.14;31.65;157223.47;1783178;79;21530;-81
2021/03/04 04:48:15;;;;;;;36.30;14.90;;;;;;;22.89;31.78;157155.81;1789617;79;21301;-80
2021/03/04 04:50:48;;;;;;;35.80;15.90;;;;;;;22.84;31.83;157143.89;1782157;79;21263;-81
2021/03/04 04:53:20;;;;;;;32.90;14.78;;;;;;;22.77;31.88;157124.00;1781309;79;21208;-85
2021/03/04 04:55:53;;;;;;;33.65;14.38;;;;;;;22.86;31.82;157149.19;1784236;79;21492;-82
2021/03/04 04:58:26;;;;;;;36.93;15.18;;;;;;;22.80;31.91;157133.28;1775532;78;21298;-79
2021/03/04 05:00:59;;;;;;;33.63;15.08;;;;;;;22.94;31.79;157169.08;1784727;79;21209;-79
2021/03/04 05:03:33;;;;;;;30.48;14.10;;;;;;;22.94;31.82;157169.08;1794749;79;21308;-78
2021/03/04 05:06:06;;;;;;;32.55;13.43;;;;;;;22.95;31.77;157171.73;1779936;79;21412;-77
2021/03/04 05:08:38;;;;;;;33.45;13.53;;;;;;;22.92;31.76;157163.77;1783815;79;21367;-74
2021/03/04 05:11:11;;;;;;;32.42;13.35;;;;;;;22.94;31.71;157170.38;1748935;80;21351;-73
2021/03/04 05:13:44;;;;;;;30.90;13.05;;;;;;;23.02;31.58;157191.61;1725653;82;21350;-73
2021/03/04 05:16:17;;;;;;;33.88;13.75;;;;;;;22.94;31.59;157169.08;1754354;81;21415;-72
2021/03/04 05:18:49;;;;;;;33.58;13.25;;;;;;;22.91;31.54;157161.12;1709584;82;21237;-72
2021/03/04 05:21:23;;;;;;;32.98;14.18;;;;;;;22.81;31.56;157135.94;1719331;82;21764;-72
2021/03/04 05:23:56;;;;;;;32.42;13.32;;;;;;;22.73;31.65;157112.09;1747382;81;21293;-72
2021/03/04 05:26:29;;;;;;;32.40;14.73;;;;;;;22.81;31.54;157135.94;1728502;81;21387;-72
2021/03/04 05:29:01;;;;;;;31.65;12.98;;;;;;;22.78;31.57;157126.66;1757656;81;21226;-70
2021/03/04 05:31:35;;;;;;;32.60;12.90;;;;;;;22.71;31.68;157106.78;1751324;81;21672;-72
2021/03/04 05:34:08;;;;;;;29.70;13.30;;;;;;;22.85;31.54;157146.55;1717559;82;21256;-71
2021/03/04 05:36:40;;;;;;;31.05;12.63;;;;;;;22.90;31.46;157158.47;1715404;82;21226;-72
2021/03/04 05:39:13;;;;;;;32.35;12.73;;;;;;;22.77;31.62;157122.70;1749791;81;21270;-73
2021/03/04 05:41:45;;;;;;;29.67;13.00;;;;;;;22.69;31.78;157101.47;1727095;82;21404;-71
2021/03/04 05:44:19;;;;;;;29.80;13.03;;;;;;;22.63;31.84;157085.61;1747143;81;21839;-73
2021/03/04 05:47:01;;;;;;;29.87;12.63;;;;;;;22.71;31.79;157108.14;1718442;82;21226;-73
2021/03/04 05:49:44;;;;;;;26.65;12.98;;;;;;;22.70;31.85;157105.48;1737403;81;21296;-71
2021/03/04 05:52:26;;;;;;;31.77;13.15;;;;;;;22.68;31.92;157100.19;1746196;80;21404;-75
2021/03/04 05:55:08;;;;;;;30.05;13.85;;;;;;;22.73;31.96;157112.09;1779791;79;21289;-74
2021/03/04 05:57:46;;;;;;;30.08;13.40;;;;;;;22.75;32.01;157118.70;1780709;79;21196;-73
2021/03/04 06:00:19;;;;;;;31.45;13.00;;;;;;;22.93;31.93;157167.72;1783281;79;21398;-70
2021/03/04 06:02:52;;;;;;;36.68;14.13;;;;;;;22.96;31.92;157175.69;1787229;79;21188;-70
2021/03/04 06:05:25;;;;;;;32.30;14.68;;;;;;;22.98;32.02;157181.00;1785517;79;21731;-70
2021/03/04 06:07:58;;;;;;;34.27;14.78;;;;;;;22.99;32.03;157182.30;1790877;79;21353;-72
2021/03/04 06:10:31;;;;;;;34.63;14.65;;;;;;;23.06;32.04;157202.23;1785020;79;21787;-71
2021/03/04 06:13:05;;;;;;;35.95;15.03;;;;;;;23.22;31.92;157244.66;1788277;79;21938;-70
2021/03/04 06:15:38;;;;;;;35.70;14.00;;;;;;;23.31;31.95;157267.20;1781296;79;21205;-70
2021/03/04 06:18:10;;;;;;;40.00;15.80;;;;;;;23.45;31.88;157305.63;1786243;79;21227;-73
2021/03/04 06:20:43;;;;;;;33.50;14.10;;;;;;;23.23;32.03;157247.31;1779704;79;21225;-73
2021/03/04 06:23:16;;;;;;;33.08;14.98;;;;;;;23.38;32.05;157285.73;1789161;79;21260;-71
2021/03/04 06:25:50;;;;;;;30.68;13.65;;;;;;;23.38;32.12;157287.03;1790124;79;21180;-71
2021/03/04 06:28:24;;;;;;;32.17;14.30;;;;;;;23.72;31.85;157378.53;1793577;79;21724;-72
2021/03/04 06:30:57;;;;;;;36.73;15.60;;;;;;;23.71;31.86;157375.88;1743303;79;21316;-72
2021/03/04 06:33:35;;;;;;;32.45;14.47;;;;;;;23.93;31.72;157434.25;1778499;79;21208;-72
2021/03/04 06:36:16;;;;;;;35.20;16.80;;;;;;;24.04;31.71;157462.13;1782311;79;21528;-72
2021/03/04 06:38:56;;;;;;;;;;;;;;;24.07;31.59;157470.09;1797435;79;21768;-72
2021/03/04 06:41:27;;;;;;;32.55;15.30;;;;;;;24.17;31.62;157496.61;1778203;79;20602;-73
2021/03/04 06:44:04;;;;;;;35.23;15.68;;;;;;;24.31;31.57;157535.06;1781537;79;21391;-73
2021/03/04 06:46:46;;;;;;;36.30;15.68;;;;;;;24.37;31.57;157550.95;1787052;79;21335;-71
2021/03/04 06:49:19;;;;;;;;;;;;;;;24.54;31.85;157596.13;1783914;79;21249;-72
2021/03/04 06:51:51;;;;;;;33.83;14.98;;;;;;;24.78;31.68;157659.81;1789539;78;20249;-72
2021/03/04 06:54:24;;;;;;;38.25;15.63;;;;;;;24.95;31.51;157706.27;1792387;78;21851;-73
2021/03/04 06:56:59;;;;;;;37.28;15.80;;;;;;;25.14;31.76;157755.42;1794097;79;21419;-71
2021/03/04 06:59:44;;;;;;;44.73;16.12;;;;;;;25.28;30.98;157793.91;1774634;79;21739;-72
2021/03/04 07:02:29;;;;;;;35.80;16.60;;;;;;;25.29;30.90;157796.56;1792551;79;21352;-70
2021/03/04 07:05:03;;;;;;;35.15;15.25;;;;;;;25.32;30.96;157803.19;1793925;79;21387;-69
2021/03/04 07:07:36;;;;;;;44.20;18.70;;;;;;;25.42;30.85;157831.08;1785603;79;21222;-72
2021/03/04 07:10:09;;;;;;;37.13;15.93;;;;;;;25.53;30.93;157858.94;1799073;79;21321;-70
2021/03/04 07:12:42;;;;;;;40.65;16.30;;;;;;;25.66;30.67;157896.13;1773930;79;21169;-74
2021/03/04 07:15:18;;;;;;;40.43;15.88;;;;;;;25.82;30.48;157938.69;1785195;79;21237;-72
2021/03/04 07:17:52;;;;;;;38.00;15.90;;;;;;;25.87;30.35;157951.94;1794794;79;21374;-71
2021/03/04 07:20:25;;;;;;;35.92;16.30;;;;;;;26.09;30.30;158009.06;1788721;79;21229;-69
2021/03/04 07:22:59;;;;;;;38.50;17.57;;;;;;;26.14;30.11;158023.67;1787436;79;21217;-71
2021/03/04 07:25:32;;;;;;;34.48;16.02;;;;;;;26.26;30.00;158054.25;1801239;79;21343;-71
2021/03/04 07:28:05;;;;;;;36.48;17.57;;;;;;;26.38;30.07;158087.44;1797162;79;21419;-70
2021/03/04 07:30:39;;;;;;;36.10;15.48;;;;;;;26.45;29.88;158106.06;1797709;79;21324;-72
2021/03/04 07:33:12;;;;;;;34.50;16.70;;;;;;;26.53;29.75;158128.67;1780951;79;21220;-73
2021/03/04 07:35:47;;;;;;;38.63;16.15;;;;;;;26.69;29.71;158171.20;1794943;79;21391;-73
2021/03/04 07:38:25;;;;;;;38.45;15.25;;;;;;;26.80;29.48;158199.09;1792895;79;21403;-72
2021/03/04 07:41:04;;;;;;;39.13;16.97;;;;;;;26.94;29.25;158237.67;1785315;79;21177;-71
2021/03/04 07:43:59;;;;;;;38.25;16.07;;;;;;;26.99;29.40;158249.63;1784685;79;21214;-69
2021/03/04 07:46:54;;;;;;;34.05;15.90;;;;;;;27.04;29.37;158262.94;1796117;79;21332;-72
2021/03/04 07:49:34;;;;;;;38.63;16.57;;;;;;;27.18;29.31;158301.53;1782778;79;21272;-72
2021/03/04 07:52:12;;;;;;;36.50;15.57;;;;;;;27.37;29.12;158352.03;1789884;79;21859;-71
2021/03/04 07:54:53;;;;;;;39.67;15.55;;;;;;;27.52;28.89;158391.94;1794174;79;21355;-71
2021/03/04 07:57:26;;;;;;;35.50;15.53;;;;;;;27.61;28.89;158415.86;1793317;79;21360;-72
2021/03/04 08:00:04;;;;;;;32.78;15.65;;;;;;;27.68;28.83;158434.50;1774660;79;21213;-72
2021/03/04 08:02:45;;;;;;;32.63;15.35;;;;;;;27.73;28.61;158449.13;1777596;79;21316;-74
2021/03/04 08:05:33;;;;;;;32.38;16.48;;;;;;;27.92;28.53;158498.34;1773894;79;21225;-72
2021/03/04 08:08:15;;;;;;;31.97;15.70;;;;;;;28.16;28.31;158562.20;1784785;79;22009;-73
2021/03/04 08:10:54;;;;;;;36.58;15.90;;;;;;;28.43;28.13;158636.78;1795793;79;21384;-73
2021/03/04 08:13:36;;;;;;;35.10;15.65;;;;;;;28.52;27.85;158660.72;1783250;79;21347;-71
2021/03/04 08:16:15;;;;;;;42.27;16.57;;;;;;;28.62;27.85;158686.03;1796650;79;21824;-71
2021/03/04 08:18:58;;;;;;;32.50;15.85;;;;;;;28.80;27.59;158735.28;1778669;79;21256;-72
2021/03/04 08:21:31;;;;;;;32.67;14.45;;;;;;;28.95;27.78;158775.22;1772838;79;21676;-71
2021/03/04 08:24:04;;;;;;;30.92;14.53;;;;;;;29.11;27.42;158817.84;1793734;79;21380;-72
2021/03/04 08:26:37;;;;;;;34.18;15.45;;;;;;;29.17;27.40;158833.80;1788954;79;21328;-71
2021/03/04 08:29:11;;;;;;;30.40;14.63;;;;;;;29.29;27.24;158864.44;1794712;79;21304;-71
2021/03/04 08:31:47;;;;;;;33.35;14.73;;;;;;;29.55;27.29;158935.06;1783811;79;21883;-71
2021/03/04 08:34:20;;;;;;;32.70;16.02;;;;;;;30.57;26.55;159208.28;1786632;79;21193;-71
2021/03/04 08:36:53;;;;;;;31.50;14.80;;;;;;;31.72;25.55;159517.72;1784732;79;21316;-70
2021/03/04 08:39:29;;;;;;;34.40;16.23;;;;;;;32.54;25.04;159736.59;1792276;79;21233;-73
2021/03/04 08:42:07;;;;;;;30.88;13.95;;;;;;;33.12;24.57;159892.86;1772293;79;21221;-73
2021/03/04 08:44:50;;;;;;;32.20;14.45;;;;;;;33.47;24.33;159986.33;1786100;79;21747;-72
2021/03/04 08:47:23;;;;;;;31.60;14.85;;;;;;;33.46;24.20;159983.66;1781107;79;21793;-72
2021/03/04 08:49:59;;;;;;;32.70;15.30;;;;;;;33.28;24.10;159936.92;1788520;79;21158;-71
2021/03/04 08:52:32;;;;;;;32.08;14.40;;;;;;;33.32;24.09;159946.31;1772157;79;21185;-73
2021/03/04 08:55:05;;;;;;;30.27;15.03;;;;;;;33.19;24.01;159912.89;1780459;79;21216;-73
2021/03/04 08:57:38;;;;;;;29.07;14.13;;;;;;;33.13;24.12;159895.53;1792304;79;21154;-72
2021/03/04 09:00:14;;;;;;;32.30;15.30;;;;;;;33.30;24.03;159940.95;1793795;79;22630;-73
2021/03/04 09:02:48;;;;;;;28.77;14.93;;;;;;;33.59;23.77;160019.75;1790763;79;21320;-73
2021/03/04 09:05:22;;;;;;;27.67;14.68;;;;;;;33.97;23.63;160119.97;1781004;79;21197;-72
2021/03/04 09:07:54;;;;;;;30.68;15.08;;;;;;;34.46;23.46;160253.66;1786292;79;21430;-74
2021/03/04 09:10:27;;;;;;;32.17;15.40;;;;;;;35.13;22.94;160432.88;1773447;79;21232;-73
2021/03/04 09:13:01;;;;;;;29.25;14.20;;;;;;;35.65;22.75;160572.03;1775008;79;21197;-72
2021/03/04 09:15:33;;;;;;;32.58;15.03;;;;;;;35.80;22.44;160613.50;1783182;79;21320;-73
2021/03/04 09:18:09;;;;;;;30.27;15.65;;;;;;;36.13;22.38;160703.16;1781015;79;21224;-74
2021/03/04 09:20:42;;;;;;;30.60;15.83;;;;;;;36.26;22.12;160737.94;1782136;79;21204;-73
2021/03/04 09:23:16;;;;;;;25.75;14.98;;;;;;;35.91;22.17;160642.92;1776697;79;21161;-71
2021/03/04 09:25:48;;;;;;;30.68;15.93;;;;;;;35.74;22.34;160597.42;1781897;79;21751;-72
2021/03/04 09:28:21;;;;;;;28.15;14.40;;;;;;;35.52;22.57;160537.27;1775121;79;21218;-70
2021/03/04 09:30:53;;;;;;;28.95;15.28;;;;;;;35.54;22.47;160543.94;1796797;79;21221;-69
2021/03/04 09:33:26;;;;;;;30.52;15.63;;;;;;;35.48;22.57;160526.48;1796930;79;21320;-69
2021/03/04 09:36:02;;;;;;;28.07;15.03;;;;;;;35.37;22.57;160497.06;1788249;79;21375;-69
2021/03/04 09:38:37;;;;;;;29.50;15.53;;;;;;;35.23;22.72;160459.63;1787155;79;21935;-72
2021/03/04 09:41:16;;;;;;;31.87;15.18;;;;;;;35.35;22.73;160493.08;1785144;79;21241;-71
2021/03/04 09:43:51;;;;;;;32.35;15.80;;;;;;;35.85;22.64;160626.84;1796938;79;21332;-70
2021/03/04 09:46:30;;;;;;;28.32;14.58;;;;;;;36.30;22.25;160748.67;1788694;79;21157;-69
2021/03/04 09:49:15;;;;;;;29.92;15.58;;;;;;;36.92;21.95;160913.37;1787909;79;21241;-70
2021/03/04 09:51:47;;;;;;;29.55;14.65;;;;;;;37.14;21.70;160973.66;1796092;79;21888;-70
2021/03/04 09:54:28;;;;;;;29.60;15.78;;;;;;;37.20;21.51;160989.69;1793488;79;21387;-70
2021/03/04 09:57:07;;;;;;;30.05;15.88;;;;;;;37.28;21.56;161011.09;1789061;79;21221;-72
2021/03/04 09:59:46;;;;;;;29.00;15.15;;;;;;;37.33;21.46;161025.83;1792035;79;21765;-72
2021/03/04 10:02:20;;;;;;;30.17;15.58;;;;;;;37.24;21.53;161001.73;1788544;79;21374;-70
2021/03/04 10:05:02;;;;;;;27.73;14.63;;;;;;;37.42;21.50;161048.66;1786862;79;21386;-71
2021/03/04 10:07:35;;;;;;;27.07;13.93;;;;;;;37.37;21.63;161036.61;1774227;79;21253;-70
2021/03/04 10:10:15;;;;;;;27.67;15.05;;;;;;;37.31;21.44;161019.16;1721093;79;21810;-69
2021/03/04 10:12:55;;;;;;;31.40;15.72;;;;;;;36.97;21.56;160928.11;1773550;79;21841;-69
2021/03/04 10:15:36;;;;;;;25.05;13.65;;;;;;;36.77;21.68;160873.16;1786433;79;21312;-70
2021/03/04 10:18:14;;;;;;;30.00;15.10;;;;;;;36.82;21.76;160886.56;1795041;79;21206;-72
2021/03/04 10:20:47;;;;;;;30.50;15.00;;;;;;;36.87;21.68;160899.92;1796698;79;21437;-70
2021/03/04 10:23:20;;;;;;;28.70;14.50;;;;;;;36.86;21.60;160897.28;1774596;79;21205;-69
2021/03/04 10:25:53;;;;;;;27.22;15.00;;;;;;;37.00;21.57;160934.78;1798176;79;21427;-70
2021/03/04 10:28:26;;;;;;;29.65;15.35;;;;;;;37.31;21.32;161019.16;1799235;79;21688;-70
2021/03/04 10:30:59;;;;;;;30.17;15.20;;;;;;;37.86;21.18;161166.55;1756359;79;21215;-70
2021/03/04 10:33:32;;;;;;;28.00;15.32;;;;;;;38.20;20.96;161259.02;1789388;79;21269;-71
2021/03/04 10:36:06;;;;;;;29.80;15.68;;;;;;;38.44;20.67;161323.37;1781950;79;21205;-70
2021/03/04 10:38:38;;;;;;;30.12;16.12;;;;;;;38.62;20.69;161371.61;1773448;79;21207;-70
2021/03/04 10:41:11;;;;;;;31.02;15.38;;;;;;;38.47;20.63;161332.75;1783837;79;21229;-70
2021/03/04 10:43:43;;;;;;;29.90;15.08;;;;;;;38.60;20.81;161367.59;1782122;79;21798;-69
2021/03/04 10:46:16;;;;;;;28.20;14.83;;;;;;;38.92;20.65;161452.11;1776747;79;21185;-70
2021/03/04 10:48:48;;;;;;;25.88;14.68;;;;;;;39.34;20.31;161566.13;1792834;79;21370;-69
2021/03/04 10:51:21;;;;;;;25.30;14.80;;;;;;;39.33;20.20;161563.44;1794167;79;21819;-70
2021/03/04 10:53:54;;;;;;;29.63;17.20;;;;;;;39.07;20.37;161493.64;1767514;79;21174;-70
2021/03/04 10:56:27;;;;;;;26.90;15.00;;;;;;;38.69;20.43;161390.45;1785650;79;21328;-70
2021/03/04 10:59:00;;;;;;;31.85;15.32;;;;;;;38.53;20.63;161347.48;1772367;79;21220;-71
2021/03/04 11:01:33;;;;;;;32.03;15.53;;;;;;;38.24;20.72;161269.80;1773789;79;21275;-70
2021/03/04 11:04:06;;;;;;;25.82;14.85;;;;;;;38.11;20.78;161234.91;1793107;79;21816;-71
2021/03/04 11:06:39;;;;;;;29.77;15.95;;;;;;;37.70;20.96;161123.67;1776390;79;21411;-69
2021/03/04 11:09:12;;;;;;;29.82;15.13;;;;;;;37.57;21.06;161088.84;1787950;79;21387;-70
2021/03/04 11:11:45;;;;;;;26.40;14.45;;;;;;;37.65;21.18;161111.62;1794056;79;21392;-71
2021/03/04 11:14:17;;;;;;;26.80;15.30;;;;;;;38.22;20.96;161265.75;1798801;79;21316;-69
2021/03/04 11:16:50;;;;;;;25.82;14.68;;;;;;;38.32;20.75;161292.53;1778404;79;21268;-70
2021/03/04 11:19:22;;;;;;;34.13;15.48;;;;;;;37.92;20.88;161183.97;1776676;79;21252;-70
2021/03/04 11:21:55;;;;;;;32.42;15.43;;;;;;;37.51;21.16;161074.11;1787597;79;21326;-69
2021/03/04 11:24:27;;;;;;;34.55;16.32;;;;;;;36.96;21.44;160924.11;1787617;79;21327;-69
2021/03/04 11:27:00;;;;;;;27.90;15.13;;;;;;;36.74;21.65;160866.48;1787171;79;21415;-69
2021/03/04 11:29:33;;;;;;;30.90;14.53;;;;;;;36.34;21.90;160759.34;1794817;79;21364;-69
2021/03/04 11:32:06;;;;;;;30.80;16.05;;;;;;;36.36;22.00;160764.69;1786318;79;21861;-69
2021/03/04 11:34:39;;;;;;;30.17;15.15;;;;;;;36.52;21.91;160806.23;1796295;79;21324;-69
2021/03/04 11:37:11;;;;;;;28.73;15.18;;;;;;;36.73;21.76;160863.80;1797179;79;21356;-70
2021/03/04 11:39:44;;;;;;;27.55;15.05;;;;;;;36.68;21.87;160850.44;1777563;79;21238;-71
2021/03/04 11:42:16;;;;;;;27.20;14.13;;;;;;;36.74;21.67;160866.48;1780096;79;21282;-70